Time;durP1;ratioP1;P1;durP2;ratioP2;P2;SDS_P1;SDS_P2;PMS_P1;PMS_P2;Temp;Humidity;BMP_temperature;BMP_pressure;BME280_temperature;BME280_humidity;BME280_pressure;Samples;Min_cycle;Max_cycle;Signal;HPM_P1;HPM_P2
2021/08/14 00:00:42;;;;;;;10.60;9.10;;;27.30;73.20;;;;;;5064938;28;20032;-61
2021/08/14 00:03:08;;;;;;;12.43;9.05;;;27.30;73.30;;;;;;5058468;28;20063;-61
2021/08/14 00:05:33;;;;;;;12.15;8.80;;;27.30;73.30;;;;;;5060141;28;20167;-61
2021/08/14 00:07:59;;;;;;;14.40;8.77;;;27.30;73.40;;;;;;5036979;28;20148;-62
2021/08/14 00:10:24;;;;;;;16.08;9.82;;;27.30;73.50;;;;;;5056963;28;20074;-61
2021/08/14 00:12:50;;;;;;;15.93;10.10;;;27.20;73.60;;;;;;5058778;28;20225;-62
2021/08/14 00:15:15;;;;;;;12.07;9.52;;;27.20;73.60;;;;;;5044111;28;20228;-61
2021/08/14 00:17:40;;;;;;;12.45;9.38;;;27.20;73.70;;;;;;5041439;28;20433;-61
2021/08/14 00:20:07;;;;;;;12.45;9.75;;;27.20;73.70;;;;;;5043418;28;20421;-61
2021/08/14 00:22:32;;;;;;;12.95;9.85;;;27.10;73.80;;;;;;5038753;28;20037;-61
2021/08/14 00:24:58;;;;;;;16.02;10.05;;;27.10;73.90;;;;;;5062928;28;20033;-61
2021/08/14 00:27:23;;;;;;;12.13;10.20;;;27.10;73.90;;;;;;5023843;28;20033;-61
2021/08/14 00:29:49;;;;;;;13.85;9.57;;;27.10;73.90;;;;;;5030455;28;20098;-61
2021/08/14 00:32:14;;;;;;;11.63;9.43;;;27.10;74.00;;;;;;5039408;28;20118;-61
2021/08/14 00:34:40;;;;;;;13.35;9.48;;;27.10;74.10;;;;;;5024054;28;20458;-61
2021/08/14 00:37:05;;;;;;;16.52;9.95;;;27.00;74.10;;;;;;5060442;28;20027;-61
2021/08/14 00:39:31;;;;;;;15.30;10.02;;;27.10;74.20;;;;;;5041859;28;20040;-61
2021/08/14 00:41:57;;;;;;;11.85;9.77;;;27.00;74.30;;;;;;5043210;28;20040;-61
2021/08/14 00:44:22;;;;;;;14.10;9.73;;;27.00;74.40;;;;;;5046642;28;20025;-61
2021/08/14 00:46:48;;;;;;;16.23;9.10;;;27.00;74.50;;;;;;5022508;28;20040;-60
2021/08/14 00:49:13;;;;;;;12.93;10.05;;;26.90;74.40;;;;;;5029117;28;20040;-61
2021/08/14 00:51:39;;;;;;;16.48;9.75;;;26.90;74.50;;;;;;5059246;28;20475;-61
2021/08/14 00:54:04;;;;;;;16.15;9.68;;;26.90;74.60;;;;;;5064585;28;20055;-61
2021/08/14 00:56:30;;;;;;;14.77;8.93;;;26.90;74.70;;;;;;5065001;28;20071;-61
2021/08/14 00:58:55;;;;;;;11.45;9.02;;;26.80;74.70;;;;;;5045141;28;20033;-61
2021/08/14 01:01:22;;;;;;;15.43;9.73;;;26.80;74.80;;;;;;5047041;28;20495;-61
2021/08/14 01:03:47;;;;;;;11.15;9.48;;;26.80;74.80;;;;;;5047871;28;20596;-61
2021/08/14 01:06:14;;;;;;;11.20;9.80;;;26.80;74.90;;;;;;5034463;28;20024;-61
2021/08/14 01:08:41;;;;;;;13.07;9.18;;;26.80;75.00;;;;;;5048708;28;20032;-61
2021/08/14 01:11:09;;;;;;;14.40;9.13;;;26.80;75.10;;;;;;5059925;28;20195;-61
2021/08/14 01:13:34;;;;;;;12.93;10.05;;;26.70;75.80;;;;;;5029579;28;20044;-61
2021/08/14 01:16:00;;;;;;;12.57;9.38;;;26.70;75.10;;;;;;5029384;28;20145;-59
2021/08/14 01:18:25;;;;;;;18.92;10.93;;;26.70;75.20;;;;;;5061679;28;20421;-61
2021/08/14 01:20:51;;;;;;;15.80;9.45;;;26.70;75.30;;;;;;5045288;28;20079;-61
2021/08/14 01:23:17;;;;;;;12.77;9.43;;;26.70;75.30;;;;;;5040673;28;20055;-61
2021/08/14 01:25:42;;;;;;;17.67;9.93;;;26.60;75.40;;;;;;5042723;28;20071;-61
2021/08/14 01:28:08;;;;;;;12.10;10.13;;;26.60;75.40;;;;;;5025737;28;20032;-61
2021/08/14 01:30:35;;;;;;;14.73;10.45;;;26.60;75.50;;;;;;5029794;28;20036;-61
2021/08/14 01:33:01;;;;;;;11.13;9.82;;;26.60;75.50;;;;;;5062304;28;20029;-61
2021/08/14 01:35:26;;;;;;;12.40;9.57;;;26.60;75.60;;;;;;5028593;28;20123;-61
2021/08/14 01:37:52;;;;;;;14.07;9.82;;;26.50;75.60;;;;;;5051832;28;20894;-61
2021/08/14 01:40:18;;;;;;;12.27;10.18;;;26.60;75.80;;;;;;5045009;28;20025;-61
2021/08/14 01:42:43;;;;;;;11.75;9.13;;;26.50;75.70;;;;;;5044915;28;20037;-61
2021/08/14 01:45:09;;;;;;;13.35;8.85;;;26.50;75.80;;;;;;5051669;28;20075;-61
2021/08/14 01:47:34;;;;;;;14.32;9.45;;;26.50;76.00;;;;;;5063725;28;21385;-61
2021/08/14 01:50:00;;;;;;;18.98;9.63;;;26.50;76.00;;;;;;5047646;28;20468;-61
2021/08/14 01:52:25;;;;;;;12.57;9.20;;;26.40;76.10;;;;;;5034134;28;20053;-61
2021/08/14 01:54:51;;;;;;;12.70;9.60;;;26.40;76.10;;;;;;5066305;28;20027;-61
2021/08/14 01:57:16;;;;;;;13.68;9.55;;;26.40;76.20;;;;;;5057894;28;20364;-61
2021/08/14 01:59:42;;;;;;;10.60;9.15;;;26.40;76.30;;;;;;5063714;28;20036;-61
2021/08/14 02:02:07;;;;;;;15.48;10.40;;;26.40;76.30;;;;;;5046853;28;20044;-61
2021/08/14 02:04:33;;;;;;;15.00;9.90;;;26.30;76.30;;;;;;5044498;28;20256;-61
2021/08/14 02:06:58;;;;;;;22.00;10.82;;;26.30;76.40;;;;;;5064977;28;20024;-61
2021/08/14 02:09:24;;;;;;;15.40;10.43;;;26.30;76.50;;;;;;5058924;28;21579;-61
2021/08/14 02:11:49;;;;;;;17.83;10.63;;;26.30;76.50;;;;;;5046649;28;20063;-61
2021/08/14 02:14:15;;;;;;;15.63;10.52;;;26.30;76.50;;;;;;5042392;28;20145;-61
2021/08/14 02:16:41;;;;;;;19.33;10.55;;;26.30;76.60;;;;;;5029577;28;20381;-61
2021/08/14 02:19:06;;;;;;;15.57;9.27;;;26.30;76.70;;;;;;5067921;28;20035;-61
2021/08/14 02:21:32;;;;;;;13.82;9.50;;;26.20;76.70;;;;;;5060870;28;20068;-61
2021/08/14 02:23:57;;;;;;;14.73;9.20;;;26.20;76.80;;;;;;5047630;28;20104;-61
2021/08/14 02:26:23;;;;;;;11.38;8.82;;;26.20;76.90;;;;;;5061489;28;20505;-61
2021/08/14 02:28:49;;;;;;;15.93;9.35;;;26.20;77.70;;;;;;5030762;28;20418;-61
2021/08/14 02:31:14;;;;;;;14.77;9.10;;;26.20;77.00;;;;;;5014603;28;20046;-61
2021/08/14 02:33:40;;;;;;;16.67;9.25;;;26.10;77.10;;;;;;5020431;28;20087;-61
2021/08/14 02:36:05;;;;;;;11.80;8.90;;;26.10;77.20;;;;;;5062252;28;20017;-61
2021/08/14 02:38:32;;;;;;;13.55;9.00;;;26.10;77.30;;;;;;5042484;28;20527;-61
2021/08/14 02:40:57;;;;;;;14.38;9.93;;;26.10;77.30;;;;;;5047669;28;20120;-61
2021/08/14 02:43:23;;;;;;;11.93;8.75;;;26.10;77.40;;;;;;5061372;28;20294;-61
2021/08/14 02:45:49;;;;;;;14.18;9.07;;;26.10;77.50;;;;;;5067730;28;20028;-61
2021/08/14 02:48:14;;;;;;;14.63;9.05;;;26.00;77.50;;;;;;5067883;28;20738;-61
2021/08/14 02:50:44;;;;;;;14.77;8.73;;;26.00;77.60;;;;;;5064431;28;20033;-61
2021/08/14 02:53:10;;;;;;;12.77;8.75;;;26.00;77.60;;;;;;5048336;28;20206;-61
2021/08/14 02:55:35;;;;;;;9.18;8.00;;;26.00;77.70;;;;;;5062166;28;20523;-61
2021/08/14 02:58:01;;;;;;;12.65;8.52;;;26.00;77.80;;;;;;5047722;28;20447;-61
2021/08/14 03:00:26;;;;;;;16.10;9.18;;;26.00;77.90;;;;;;5060197;28;20420;-61
2021/08/14 03:02:52;;;;;;;13.30;9.57;;;25.90;77.90;;;;;;5065822;28;20051;-61
2021/08/14 03:05:17;;;;;;;11.65;8.95;;;25.90;78.00;;;;;;5062621;28;20036;-60
2021/08/14 03:07:43;;;;;;;13.80;9.23;;;25.90;78.10;;;;;;5043552;28;20405;-61
2021/08/14 03:10:08;;;;;;;14.27;9.63;;;25.90;78.10;;;;;;5042738;28;20444;-60
2021/08/14 03:12:34;;;;;;;12.35;9.50;;;25.90;78.20;;;;;;5060599;28;20115;-61
2021/08/14 03:14:59;;;;;;;11.77;9.77;;;25.90;78.30;;;;;;5007529;28;1055334;-61
2021/08/14 03:17:25;;;;;;;14.75;9.20;;;25.80;78.40;;;;;;5063475;28;20025;-61
2021/08/14 03:19:50;;;;;;;14.38;9.93;;;25.80;78.40;;;;;;5062591;28;20039;-61
2021/08/14 03:22:16;;;;;;;12.98;9.65;;;25.80;78.50;;;;;;5059468;28;20075;-61
2021/08/14 03:24:42;;;;;;;13.30;9.23;;;25.80;78.50;;;;;;5061521;28;20480;-61
2021/08/14 03:27:07;;;;;;;13.90;9.32;;;25.70;78.50;;;;;;5062978;28;20017;-61
2021/08/14 03:29:33;;;;;;;14.07;9.88;;;25.80;78.70;;;;;;5067179;28;20042;-61
2021/08/14 03:31:58;;;;;;;11.95;9.10;;;25.70;78.70;;;;;;5063877;28;20111;-61
2021/08/14 03:34:24;;;;;;;13.57;9.45;;;25.70;78.80;;;;;;5040513;28;20047;-61
2021/08/14 03:36:49;;;;;;;12.35;9.05;;;25.70;78.80;;;;;;5062478;28;20044;-61
2021/08/14 03:39:15;;;;;;;13.13;8.35;;;25.70;79.00;;;;;;5065998;28;20050;-61
2021/08/14 03:41:41;;;;;;;11.30;9.32;;;25.60;79.00;;;;;;5045344;28;20052;-61
2021/08/14 03:44:06;;;;;;;12.20;8.88;;;25.60;79.00;;;;;;5048210;28;20070;-61
2021/08/14 03:46:32;;;;;;;10.27;8.75;;;25.60;79.10;;;;;;5065116;28;20391;-61
2021/08/14 03:48:57;;;;;;;12.02;8.60;;;25.60;79.10;;;;;;5061888;28;20075;-61
2021/08/14 03:51:23;;;;;;;10.60;9.15;;;25.60;79.30;;;;;;5021955;28;20033;-61
2021/08/14 03:53:48;;;;;;;12.57;9.35;;;25.60;79.20;;;;;;5067249;28;20028;-61
2021/08/14 03:56:15;;;;;;;15.68;9.77;;;25.60;79.30;;;;;;5069802;28;20028;-61
2021/08/14 03:58:40;;;;;;;14.82;10.43;;;25.60;79.30;;;;;;5045065;28;20032;-60
2021/08/14 04:01:06;;;;;;;15.10;9.80;;;25.60;79.40;;;;;;5043978;28;20099;-61
2021/08/14 04:03:31;;;;;;;10.90;9.18;;;25.50;79.30;;;;;;5025576;28;20035;-61
2021/08/14 04:05:57;;;;;;;14.70;9.98;;;25.50;79.40;;;;;;5040275;28;20021;-60
2021/08/14 04:08:22;;;;;;;17.85;10.18;;;25.50;79.50;;;;;;5057129;28;20032;-61
2021/08/14 04:10:48;;;;;;;16.67;10.35;;;25.50;79.50;;;;;;5063358;28;20029;-61
2021/08/14 04:13:14;;;;;;;16.70;9.93;;;25.50;79.50;;;;;;5064915;28;20537;-60
2021/08/14 04:15:39;;;;;;;13.57;9.88;;;25.50;79.60;;;;;;5046913;28;20052;-61
2021/08/14 04:18:05;;;;;;;12.50;10.07;;;25.40;79.50;;;;;;5016314;28;20052;-61
2021/08/14 04:20:30;;;;;;;12.95;10.32;;;25.40;79.60;;;;;;5063204;28;20249;-61
2021/08/14 04:22:56;;;;;;;14.40;9.60;;;25.40;79.60;;;;;;5064120;28;20060;-61
2021/08/14 04:25:21;;;;;;;13.20;9.35;;;25.40;79.70;;;;;;5067082;28;20060;-61
2021/08/14 04:27:47;;;;;;;15.13;10.55;;;25.40;79.80;;;;;;5041640;28;20044;-62
2021/08/14 04:30:13;;;;;;;11.23;10.13;;;25.30;79.80;;;;;;5063030;28;20035;-61
2021/08/14 04:32:38;;;;;;;12.55;9.77;;;25.30;79.90;;;;;;5026686;28;20029;-61
2021/08/14 04:35:08;;;;;;;12.75;9.82;;;25.30;80.00;;;;;;5039294;28;20561;-61
2021/08/14 04:37:34;;;;;;;12.27;9.05;;;25.20;80.00;;;;;;5050857;28;20107;-61
2021/08/14 04:39:59;;;;;;;14.40;10.00;;;25.30;80.10;;;;;;5057965;28;20123;-61
2021/08/14 04:42:25;;;;;;;11.00;9.23;;;25.20;80.10;;;;;;5051186;28;20021;-61
2021/08/14 04:44:51;;;;;;;17.20;10.18;;;25.20;80.20;;;;;;5028293;28;20020;-61
2021/08/14 04:47:16;;;;;;;14.10;9.63;;;25.20;80.30;;;;;;5066055;28;20049;-61
2021/08/14 04:49:42;;;;;;;13.20;8.65;;;25.20;80.40;;;;;;5060055;28;20433;-61
2021/08/14 04:52:07;;;;;;;13.35;9.40;;;25.20;80.40;;;;;;5060972;28;20110;-61
2021/08/14 04:54:33;;;;;;;10.43;9.13;;;25.10;80.40;;;;;;5065808;28;20501;-61
2021/08/14 04:56:58;;;;;;;12.82;8.82;;;25.10;80.50;;;;;;5065270;28;20438;-61
2021/08/14 04:59:24;;;;;;;14.07;9.05;;;25.10;80.50;;;;;;5048441;28;20178;-61
2021/08/14 05:01:49;;;;;;;15.43;8.80;;;25.10;80.60;;;;;;5061863;28;20081;-61
2021/08/14 05:04:15;;;;;;;18.92;9.68;;;25.10;80.60;;;;;;5058250;28;20028;-61
2021/08/14 05:06:40;;;;;;;28.58;10.45;;;25.10;80.60;;;;;;5068293;28;20049;-61
2021/08/14 05:09:06;;;;;;;32.15;11.63;;;25.10;80.70;;;;;;5049201;28;20476;-61
2021/08/14 05:11:31;;;;;;;70.65;13.05;;;25.10;80.70;;;;;;5044557;28;20444;-61
2021/08/14 05:13:57;;;;;;;73.28;13.30;;;25.10;80.80;;;;;;5041414;28;20040;-61
2021/08/14 05:16:25;;;;;;;79.22;15.25;;;25.00;80.80;;;;;;5047812;28;20422;-61
2021/08/14 05:18:51;;;;;;;77.32;14.10;;;25.00;81.00;;;;;;5061471;28;20036;-61
2021/08/14 05:21:16;;;;;;;63.72;13.27;;;25.00;81.10;;;;;;5043866;28;20139;-61
2021/08/14 05:23:42;;;;;;;64.70;14.20;;;25.00;81.20;;;;;;5068449;28;20114;-61
2021/08/14 05:26:07;;;;;;;70.03;13.07;;;25.00;81.40;;;;;;5059633;28;20104;-61
2021/08/14 05:28:33;;;;;;;61.67;12.57;;;24.90;81.40;;;;;;5061651;28;20115;-61
2021/08/14 05:30:58;;;;;;;49.80;12.88;;;24.90;81.40;;;;;;5065172;28;20131;-61
2021/08/14 05:33:24;;;;;;;78.35;13.38;;;25.00;81.40;;;;;;5032526;28;20044;-61
2021/08/14 05:35:49;;;;;;;64.32;12.85;;;24.90;81.40;;;;;;5057550;28;20056;-61
2021/08/14 05:38:15;;;;;;;67.72;12.88;;;24.90;81.40;;;;;;5041511;28;20547;-60
2021/08/14 05:40:40;;;;;;;72.70;12.98;;;24.90;81.50;;;;;;5033226;28;20210;-61
2021/08/14 05:43:06;;;;;;;64.63;13.05;;;24.90;81.60;;;;;;5065286;28;20040;-60
2021/08/14 05:45:32;;;;;;;63.53;13.15;;;24.90;81.60;;;;;;5048583;28;20479;-61
2021/08/14 05:47:57;;;;;;;59.92;13.48;;;24.90;81.60;;;;;;5065971;28;20107;-61
2021/08/14 05:50:23;;;;;;;66.82;12.77;;;24.90;81.60;;;;;;5030925;28;20713;-61
2021/08/14 05:52:48;;;;;;;61.45;13.00;;;24.90;81.80;;;;;;5066113;28;20020;-61
2021/08/14 05:55:14;;;;;;;63.35;11.77;;;24.90;81.90;;;;;;5030809;28;20171;-61
2021/08/14 05:57:40;;;;;;;49.63;11.48;;;24.90;82.10;;;;;;5048719;28;20043;-61
2021/08/14 06:00:06;;;;;;;54.33;12.40;;;24.90;82.20;;;;;;5044022;28;20035;-61
2021/08/14 06:02:32;;;;;;;60.15;12.18;;;24.90;82.20;;;;;;5060031;28;20484;-61
2021/08/14 06:04:57;;;;;;;66.10;12.40;;;24.90;82.20;;;;;;5023868;28;20259;-61
2021/08/14 06:07:23;;;;;;;49.45;11.30;;;24.90;82.10;;;;;;5025733;28;20032;-61
2021/08/14 06:09:48;;;;;;;168.00;18.38;;;24.90;82.20;;;;;;5048525;28;20024;-61
2021/08/14 06:12:14;;;;;;;187.25;19.50;;;24.90;82.20;;;;;;5044475;28;20057;-61
2021/08/14 06:14:39;;;;;;;175.32;19.02;;;24.90;82.20;;;;;;5067881;28;20487;-61
2021/08/14 06:17:05;;;;;;;163.32;19.38;;;24.90;82.20;;;;;;5062076;28;20087;-61
2021/08/14 06:19:31;;;;;;;140.63;17.02;;;24.90;82.40;;;;;;5045373;28;20032;-60
2021/08/14 06:21:57;;;;;;;95.97;15.70;;;24.90;82.40;;;;;;5052286;28;20119;-61
2021/08/14 06:24:22;;;;;;;63.63;12.98;;;24.90;82.70;;;;;;5070126;28;20104;-61
2021/08/14 06:26:48;;;;;;;72.07;12.60;;;24.90;82.50;;;;;;5071466;28;20026;-61
2021/08/14 06:29:13;;;;;;;75.95;13.77;;;24.90;82.40;;;;;;5064789;28;20058;-61
2021/08/14 06:31:39;;;;;;;43.65;11.32;;;24.90;82.40;;;;;;5062516;28;20498;-61
2021/08/14 06:34:04;;;;;;;56.72;11.88;;;24.90;82.40;;;;;;5059970;28;20076;-61
2021/08/14 06:36:30;;;;;;;62.53;13.40;;;24.90;82.40;;;;;;5068238;28;20130;-61
2021/08/14 06:38:56;;;;;;;48.33;12.30;;;24.90;82.40;;;;;;5069584;28;20102;-61
2021/08/14 06:41:22;;;;;;;51.53;12.25;;;24.80;82.30;;;;;;5074106;28;20441;-61
2021/08/14 06:43:47;;;;;;;47.63;12.18;;;24.90;82.40;;;;;;5069941;28;20093;-61
2021/08/14 06:46:13;;;;;;;58.67;12.13;;;24.90;82.30;;;;;;5048180;28;20045;-61
2021/08/14 06:48:38;;;;;;;44.05;12.38;;;24.70;82.20;;;;;;5064148;28;20036;-61
2021/08/14 06:51:04;;;;;;;49.30;11.43;;;24.80;82.20;;;;;;5070387;28;20032;-61
2021/08/14 06:53:30;;;;;;;47.85;11.07;;;24.90;82.20;;;;;;5032553;28;20400;-60
2021/08/14 06:55:55;;;;;;;42.50;11.65;;;24.80;82.20;;;;;;5075641;28;20103;-61
2021/08/14 06:58:21;;;;;;;44.33;10.65;;;24.80;82.20;;;;;;5065585;28;20218;-61
2021/08/14 07:00:46;;;;;;;33.08;10.40;;;24.80;82.20;;;;;;5051106;28;20538;-61
2021/08/14 07:03:12;;;;;;;46.10;10.68;;;24.80;82.10;;;;;;5065910;28;20630;-61
2021/08/14 07:05:39;;;;;;;47.15;10.68;;;24.90;82.20;;;;;;5062774;28;20217;-61
2021/08/14 07:08:05;;;;;;;39.20;9.80;;;24.90;82.10;;;;;;5047103;28;20124;-61
2021/08/14 07:10:30;;;;;;;41.33;9.98;;;24.90;82.40;;;;;;5066712;28;20111;-61
2021/08/14 07:12:56;;;;;;;36.80;11.00;;;24.90;82.90;;;;;;5058573;28;20056;-61
2021/08/14 07:15:21;;;;;;;37.35;10.98;;;24.90;82.80;;;;;;5057768;28;20032;-61
2021/08/14 07:17:47;;;;;;;32.22;9.90;;;24.90;82.80;;;;;;5059530;28;20044;-61
2021/08/14 07:20:12;;;;;;;35.67;10.23;;;24.80;83.50;;;;;;5062387;28;20416;-61
2021/08/14 07:22:38;;;;;;;28.42;10.77;;;24.90;83.00;;;;;;5047374;28;20025;-61
2021/08/14 07:25:04;;;;;;;23.80;10.35;;;24.80;83.10;;;;;;5030213;28;20040;-61
2021/08/14 07:27:29;;;;;;;33.13;10.73;;;24.80;83.10;;;;;;5041847;28;20475;-61
2021/08/14 07:29:55;;;;;;;23.00;10.27;;;24.80;83.30;;;;;;5043181;28;20044;-61
2021/08/14 07:32:20;;;;;;;24.13;10.18;;;24.80;83.40;;;;;;5064032;28;20039;-61
2021/08/14 07:34:46;;;;;;;18.75;9.82;;;24.80;83.40;;;;;;5064278;28;20056;-61
2021/08/14 07:37:11;;;;;;;20.63;9.20;;;24.80;83.30;;;;;;5063790;28;20119;-61
2021/08/14 07:39:37;;;;;;;31.55;10.45;;;24.80;83.50;;;;;;5046563;28;20467;-61
2021/08/14 07:42:02;;;;;;;28.13;10.20;;;24.80;83.40;;;;;;5061438;28;20024;-61
2021/08/14 07:44:28;;;;;;;24.23;9.30;;;24.90;83.60;;;;;;5058127;28;20048;-61
2021/08/14 07:46:53;;;;;;;22.95;9.48;;;24.80;83.40;;;;;;5043860;28;20491;-61
2021/08/14 07:49:19;;;;;;;27.17;9.32;;;24.80;83.40;;;;;;5050799;28;20068;-61
2021/08/14 07:51:44;;;;;;;17.42;9.38;;;24.80;83.30;;;;;;5062541;28;20042;-61
2021/08/14 07:54:10;;;;;;;14.10;9.35;;;24.80;83.50;;;;;;5063376;28;20028;-62
2021/08/14 07:56:35;;;;;;;21.70;10.13;;;24.80;84.40;;;;;;5063682;28;20013;-61
2021/08/14 07:59:01;;;;;;;16.33;9.38;;;24.80;84.00;;;;;;5065047;28;20511;-61
2021/08/14 08:01:26;;;;;;;16.23;9.23;;;24.80;84.30;;;;;;5043190;28;20033;-61
2021/08/14 08:03:52;;;;;;;19.63;9.85;;;24.80;84.50;;;;;;5062998;28;20074;-61
2021/08/14 08:06:17;;;;;;;15.60;9.50;;;24.80;85.20;;;;;;5060418;28;20103;-61
2021/08/14 08:08:43;;;;;;;17.67;9.45;;;24.80;85.30;;;;;;5046147;28;20100;-61
2021/08/14 08:11:08;;;;;;;16.00;9.25;;;24.80;85.10;;;;;;5060224;28;20708;-61
2021/08/14 08:13:34;;;;;;;17.38;9.73;;;24.80;85.60;;;;;;5030524;28;20424;-60
2021/08/14 08:15:59;;;;;;;16.80;10.15;;;24.80;85.80;;;;;;5039999;28;20555;-61
2021/08/14 08:18:25;;;;;;;20.25;9.77;;;24.80;85.90;;;;;;5065625;28;20036;-61
2021/08/14 08:20:50;;;;;;;20.17;9.93;;;24.80;85.90;;;;;;5068475;28;20026;-61
2021/08/14 08:23:16;;;;;;;23.90;9.15;;;24.80;86.10;;;;;;5047690;28;20143;-61
2021/08/14 08:25:43;;;;;;;20.00;9.80;;;24.80;85.90;;;;;;5028892;28;20384;-61
2021/08/14 08:28:08;;;;;;;19.50;9.00;;;24.80;85.90;;;;;;5062546;28;20070;-61
2021/08/14 08:30:34;;;;;;;31.65;10.23;;;24.80;85.60;;;;;;5066806;28;20055;-60
2021/08/14 08:32:59;;;;;;;25.92;9.85;;;24.90;85.80;;;;;;5042356;28;20043;-61
2021/08/14 08:35:25;;;;;;;25.75;10.20;;;24.90;86.00;;;;;;5042617;28;20403;-61
2021/08/14 08:37:50;;;;;;;48.58;10.18;;;24.90;86.00;;;;;;5062451;28;20240;-61
2021/08/14 08:40:16;;;;;;;23.13;9.98;;;24.90;86.10;;;;;;5028737;28;20109;-60
2021/08/14 08:42:43;;;;;;;31.45;11.32;;;25.00;86.00;;;;;;5044001;28;20036;-60
2021/08/14 08:45:09;;;;;;;25.17;10.13;;;24.90;85.90;;;;;;5042489;28;20026;-61
2021/08/14 08:47:43;;;;;;;34.42;10.50;;;25.00;85.90;;;;;;5043728;28;20444;-60
2021/08/14 08:50:09;;;;;;;28.30;10.85;;;25.10;85.70;;;;;;5025149;28;20025;-61
2021/08/14 08:52:35;;;;;;;45.55;11.85;;;25.10;85.80;;;;;;5042694;28;20468;-61
2021/08/14 08:55:00;;;;;;;27.70;11.23;;;25.10;85.80;;;;;;5043369;28;20044;-61
2021/08/14 08:57:26;;;;;;;39.95;10.65;;;25.10;85.60;;;;;;5019362;28;20051;-61
2021/08/14 08:59:52;;;;;;;71.90;13.43;;;25.10;85.70;;;;;;5063350;28;20039;-61
2021/08/14 09:02:24;;;;;;;101.75;13.60;;;25.20;86.10;;;;;;5060873;28;21059;-61
2021/08/14 09:05:04;;;;;;;50.10;11.82;;;25.20;86.00;;;;;;5049639;28;20055;-61
2021/08/14 09:07:29;;;;;;;59.83;13.05;;;25.20;85.90;;;;;;5045259;28;20399;-61
2021/08/14 09:09:58;;;;;;;78.90;14.82;;;25.20;86.00;;;;;;5052312;28;20036;-61
2021/08/14 09:12:35;;;;;;;79.80;13.82;;;25.30;86.00;;;;;;5058133;28;20365;-61
2021/08/14 09:15:01;;;;;;;53.08;12.55;;;25.30;85.90;;;;;;5062046;28;20040;-61
2021/08/14 09:17:28;;;;;;;42.55;12.10;;;25.30;86.50;;;;;;5050710;28;21313;-61
2021/08/14 09:20:23;;;;;;;44.15;11.75;;;25.30;85.70;;;;;;5042649;28;20055;-61
2021/08/14 09:23:11;;;;;;;103.07;17.33;;;25.40;85.70;;;;;;5018064;28;20074;-61
2021/08/14 09:25:50;;;;;;;70.15;13.07;;;25.40;85.70;;;;;;5037042;28;20488;-61
2021/08/14 09:28:17;;;;;;;55.40;13.15;;;25.40;85.60;;;;;;5042020;28;20655;-61
2021/08/14 09:30:46;;;;;;;68.18;13.50;;;25.40;85.40;;;;;;5060722;28;20489;-60
2021/08/14 09:33:13;;;;;;;73.88;13.48;;;25.50;85.20;;;;;;5055863;28;20044;-61
2021/08/14 09:35:40;;;;;;;73.60;13.98;;;25.50;85.30;;;;;;5049840;28;20029;-61
2021/08/14 09:38:08;;;;;;;61.72;12.25;;;25.50;85.10;;;;;;5057754;28;20067;-61
2021/08/14 09:40:43;;;;;;;54.75;11.75;;;25.60;85.30;;;;;;5065198;28;20034;-61
2021/08/14 09:43:09;;;;;;;56.95;12.43;;;25.60;85.10;;;;;;5059516;28;20032;-61
2021/08/14 09:45:35;;;;;;;73.03;13.02;;;25.60;84.70;;;;;;5042045;28;20728;-61
2021/08/14 09:48:14;;;;;;;55.53;13.80;;;25.70;84.70;;;;;;5041292;28;20036;-61
2021/08/14 09:50:40;;;;;;;51.40;12.00;;;25.70;84.30;;;;;;5031034;28;20047;-61
2021/08/14 09:53:22;;;;;;;56.35;12.10;;;25.70;84.00;;;;;;5063602;28;20357;-61
2021/08/14 09:55:50;;;;;;;57.28;12.07;;;25.80;83.80;;;;;;5039998;28;20041;-61
2021/08/14 09:58:17;;;;;;;57.95;12.60;;;25.80;83.60;;;;;;5040233;28;20020;-61
2021/08/14 10:00:50;;;;;;;50.58;11.52;;;25.90;83.30;;;;;;5042323;28;20103;-61
2021/08/14 10:03:16;;;;;;;48.38;11.02;;;25.90;83.00;;;;;;5025255;28;20464;-61
2021/08/14 10:05:42;;;;;;;73.40;12.70;;;25.90;83.50;;;;;;5045966;28;20040;-64
2021/08/14 10:08:08;;;;;;;82.13;13.88;;;25.90;82.70;;;;;;5040581;28;20032;-62
2021/08/14 10:10:33;;;;;;;65.50;13.48;;;26.00;82.60;;;;;;5041668;28;20289;-62
2021/08/14 10:12:59;;;;;;;58.20;12.75;;;26.00;82.40;;;;;;5060962;28;20142;-62
2021/08/14 10:15:25;;;;;;;66.47;12.50;;;26.00;82.30;;;;;;5041172;28;20127;-61
2021/08/14 10:17:51;;;;;;;51.10;12.50;;;26.10;82.10;;;;;;5057851;28;20044;-61
2021/08/14 10:20:17;;;;;;;63.83;12.85;;;26.10;81.90;;;;;;5062037;28;20032;-61
2021/08/14 10:22:44;;;;;;;66.30;11.88;;;26.10;81.90;;;;;;5029056;28;20032;-61
2021/08/14 10:25:19;;;;;;;62.88;12.40;;;26.10;81.70;;;;;;5041006;28;21367;-61
2021/08/14 10:28:05;;;;;;;49.47;10.93;;;26.20;81.50;;;;;;5061748;28;20044;-61
2021/08/14 10:30:43;;;;;;;;;;;26.20;81.50;;;;;;5062342;28;20602;-62
2021/08/14 10:33:28;;;;;;;49.92;11.60;;;26.20;81.30;;;;;;5055710;28;19917;-61
2021/08/14 10:35:58;;;;;;;54.90;10.98;;;26.30;80.90;;;;;;5057438;28;20032;-61
2021/08/14 10:38:38;;;;;;;49.17;9.68;;;26.40;80.70;;;;;;5065047;28;20702;-61
2021/08/14 10:41:03;;;;;;;40.80;9.52;;;26.40;80.50;;;;;;5030171;28;20718;-61
2021/08/14 10:43:54;;;;;;;51.03;10.52;;;26.40;80.30;;;;;;5025792;28;20111;-62
2021/08/14 10:46:34;;;;;;;59.38;11.32;;;26.50;80.10;;;;;;5066020;28;20491;-61
2021/08/14 10:49:00;;;;;;;73.13;11.88;;;26.50;79.90;;;;;;5058969;28;20155;-61
2021/08/14 10:51:48;;;;;;;80.85;10.90;;;26.50;79.80;;;;;;5013502;28;20100;-61
2021/08/14 10:54:14;;;;;;;77.25;11.20;;;26.70;79.90;;;;;;5062605;28;20135;-61
2021/08/14 10:56:49;;;;;;;53.00;10.65;;;26.60;79.50;;;;;;5031940;28;20498;-61
2021/08/14 10:59:38;;;;;;;;;;;26.60;80.10;;;;;;5064219;28;20035;-61
2021/08/14 11:02:06;;;;;;;53.45;9.88;;;26.70;79.10;;;;;;5061635;28;19947;-60
2021/08/14 11:04:36;;;;;;;59.88;11.68;;;26.70;78.90;;;;;;5060937;28;21959;-60
2021/08/14 11:07:17;;;;;;;44.72;10.68;;;26.80;78.80;;;;;;5027658;28;20146;-60
2021/08/14 11:09:43;;;;;;;63.67;10.35;;;26.80;78.70;;;;;;5061038;28;20025;-60
2021/08/14 11:12:09;;;;;;;67.68;11.40;;;26.90;78.50;;;;;;5043808;28;20032;-62
2021/08/14 11:14:45;;;;;;;66.57;10.50;;;26.90;78.20;;;;;;5027300;28;20049;-59
2021/08/14 11:17:11;;;;;;;69.72;11.77;;;27.00;78.20;;;;;;5042914;28;20071;-60
2021/08/14 11:19:48;;;;;;;59.42;10.95;;;27.10;78.20;;;;;;5055878;28;20086;-62
2021/08/14 11:22:24;;;;;;;72.03;10.57;;;27.10;78.00;;;;;;5055792;28;20020;-60
2021/08/14 11:24:49;;;;;;;58.03;11.57;;;27.20;78.10;;;;;;5028791;28;20085;-60
2021/08/14 11:27:22;;;;;;;44.88;9.35;;;27.30;78.50;;;;;;5042394;28;20020;-60
2021/08/14 11:30:02;;;;;;;51.08;10.60;;;27.40;77.50;;;;;;5041988;28;20029;-60
2021/08/14 11:32:28;;;;;;;59.45;9.90;;;27.40;77.20;;;;;;5039872;28;20062;-60
2021/08/14 11:34:54;;;;;;;74.30;12.18;;;27.50;77.20;;;;;;5040525;28;20388;-60
2021/08/14 11:37:20;;;;;;;73.65;11.10;;;27.60;76.90;;;;;;5042237;28;20227;-60
2021/08/14 11:39:45;;;;;;;62.50;11.93;;;27.70;76.80;;;;;;5043502;28;20107;-60
2021/08/14 11:42:11;;;;;;;77.57;11.95;;;27.70;76.50;;;;;;5040440;28;20028;-59
2021/08/14 11:44:37;;;;;;;54.83;10.50;;;27.80;76.30;;;;;;5026354;28;20040;-60
2021/08/14 11:47:03;;;;;;;97.13;13.13;;;27.90;76.00;;;;;;5043719;28;20083;-60
2021/08/14 11:49:29;;;;;;;71.03;11.40;;;28.00;75.90;;;;;;5060362;28;20025;-60
2021/08/14 11:52:04;;;;;;;59.42;11.20;;;28.10;75.80;;;;;;5044539;28;20102;-60
2021/08/14 11:54:30;;;;;;;64.33;11.47;;;28.20;75.70;;;;;;5045940;28;20032;-60
2021/08/14 11:57:07;;;;;;;63.30;10.82;;;28.20;75.20;;;;;;5043964;28;20025;-60
2021/08/14 11:59:34;;;;;;;48.55;9.57;;;28.30;75.00;;;;;;5056366;28;20112;-59
2021/08/14 12:01:59;;;;;;;76.57;12.32;;;28.40;74.80;;;;;;5040795;28;20030;-60
2021/08/14 12:04:25;;;;;;;71.28;11.18;;;28.50;74.50;;;;;;5030392;28;20025;-60
2021/08/14 12:06:55;;;;;;;77.03;11.27;;;28.50;73.90;;;;;;5021870;28;20025;-60
2021/08/14 12:09:21;;;;;;;66.07;10.48;;;28.60;73.70;;;;;;5045376;28;20034;-60
2021/08/14 12:11:46;;;;;;;74.65;11.38;;;28.70;73.70;;;;;;5024559;28;20051;-60
2021/08/14 12:14:12;;;;;;;54.78;10.95;;;28.80;73.60;;;;;;5062022;28;20052;-60
2021/08/14 12:16:41;;;;;;;71.90;11.30;;;28.80;73.20;;;;;;5062986;28;20324;-60
2021/08/14 12:19:18;;;;;;;54.22;10.07;;;28.90;72.60;;;;;;5032200;28;20421;-60
2021/08/14 12:21:44;;;;;;;56.35;10.15;;;29.00;72.10;;;;;;5058006;28;20543;-60
2021/08/14 12:24:10;;;;;;;49.63;10.85;;;29.00;71.60;;;;;;5020197;28;20063;-59
2021/08/14 12:26:35;;;;;;;65.03;10.10;;;29.10;71.60;;;;;;5023530;28;20110;-60
2021/08/14 12:29:06;;;;;;;73.25;11.82;;;29.10;71.60;;;;;;5041293;28;20032;-60